createdAt,value
2018-03-09T00:01:59.852Z,5.74
2018-03-09T00:04:26.523Z,5.75
2018-03-09T00:06:53.142Z,5.72
2018-03-09T00:09:19.726Z,5.74
2018-03-09T00:11:46.332Z,5.79
2018-03-09T00:14:12.928Z,5.81
2018-03-09T00:16:39.547Z,5.83
2018-03-09T00:19:06.143Z,5.85
2018-03-09T00:21:32.775Z,5.82
2018-03-09T00:23:59.364Z,5.83
2018-03-09T00:26:25.930Z,5.91
2018-03-09T00:28:52.962Z,5.90
2018-03-09T00:31:20.262Z,5.90
2018-03-09T00:33:46.837Z,5.94
2018-03-09T00:36:13.555Z,5.96
2018-03-09T00:38:40.158Z,5.98
2018-03-09T00:41:06.755Z,6.02
2018-03-09T00:43:33.357Z,5.95
2018-03-09T00:46:00.707Z,5.89
2018-03-09T00:48:28.062Z,5.92
2018-03-09T00:51:13.119Z,6.03
2018-03-09T00:53:39.704Z,6.02
2018-03-09T00:56:06.379Z,6.02
2018-03-09T00:58:33.872Z,6.05
2018-03-09T01:01:01.230Z,6.06
2018-03-09T01:03:27.816Z,6.03
2018-03-09T01:05:54.401Z,6.03
2018-03-09T01:08:21.091Z,6.06
2018-03-09T01:10:47.654Z,6.08
2018-03-09T01:13:14.222Z,6.02
2018-03-09T01:15:40.863Z,6.00
2018-03-09T01:18:07.440Z,6.04
2018-03-09T01:20:34.059Z,6.03
2018-03-09T01:23:00.647Z,6.07
2018-03-09T01:25:27.980Z,6.08
2018-03-09T01:27:55.366Z,6.03
2018-03-09T01:30:22.701Z,5.98
2018-03-09T01:32:49.271Z,6.03
2018-03-09T01:35:15.856Z,6.02
2018-03-09T01:37:43.218Z,5.91
2018-03-09T01:40:10.143Z,5.93
2018-03-09T01:42:36.719Z,5.95
2018-03-09T01:45:03.325Z,5.97
2018-03-09T01:47:29.932Z,5.90
2018-03-09T01:49:56.548Z,5.91
2018-03-09T01:52:37.399Z,5.97
2018-03-09T01:55:04.782Z,5.97
2018-03-09T01:57:31.395Z,6.00
2018-03-09T01:59:58.700Z,6.02
2018-03-09T02:02:25.322Z,6.01
2018-03-09T02:04:51.922Z,5.97
2018-03-09T02:07:18.538Z,6.02
2018-03-09T02:09:45.171Z,6.04
2018-03-09T02:12:12.535Z,6.10
2018-03-09T02:14:39.122Z,6.04
2018-03-09T02:17:05.708Z,6.08
2018-03-09T02:19:32.375Z,6.09
2018-03-09T02:21:58.985Z,6.02
2018-03-09T02:24:25.644Z,6.05
2018-03-09T02:26:52.231Z,6.10
2018-03-09T02:29:18.845Z,6.11
2018-03-09T02:31:45.441Z,6.09
2018-03-09T02:34:12.750Z,6.09
2018-03-09T02:36:39.356Z,6.10
2018-03-09T02:39:05.973Z,6.16
2018-03-09T02:41:33.299Z,6.13
2018-03-09T02:44:01.083Z,6.20
2018-03-09T02:46:27.714Z,6.17
2018-03-09T02:48:55.115Z,6.13
2018-03-09T02:51:21.716Z,6.20
2018-03-09T02:53:49.071Z,6.14
2018-03-09T02:56:16.415Z,6.22
2018-03-09T02:58:43.019Z,6.20
2018-03-09T03:01:09.619Z,6.11
2018-03-09T03:03:36.266Z,6.13
2018-03-09T03:06:02.935Z,6.19
2018-03-09T03:08:29.519Z,6.20
2018-03-09T03:10:56.410Z,6.20
2018-03-09T03:13:22.987Z,6.23
2018-03-09T03:15:50.996Z,6.27
2018-03-09T03:18:17.642Z,6.30
2018-03-09T03:20:44.271Z,6.28
2018-03-09T03:23:10.879Z,6.20
2018-03-09T03:25:37.445Z,6.18
2018-03-09T03:28:04.048Z,6.26
2018-03-09T03:30:31.386Z,6.33
2018-03-09T03:32:58.728Z,6.30
2018-03-09T03:35:25.364Z,6.27
2018-03-09T03:37:52.734Z,6.35
2018-03-09T03:40:20.330Z,6.34
2018-03-09T03:42:46.919Z,6.38
2018-03-09T03:45:13.540Z,6.43
2018-03-09T03:47:40.159Z,6.36
2018-03-09T03:50:06.736Z,6.36
2018-03-09T03:52:33.338Z,6.39
2018-03-09T03:54:59.932Z,6.37
2018-03-09T03:57:26.543Z,6.35
2018-03-09T03:59:53.141Z,6.32
2018-03-09T04:02:19.714Z,6.35
2018-03-09T04:04:46.307Z,6.37
2018-03-09T04:07:12.921Z,6.44
2018-03-09T04:09:39.506Z,6.42
2018-03-09T04:12:06.440Z,6.37
2018-03-09T04:14:33.033Z,6.35
2018-03-09T04:16:59.708Z,6.34
2018-03-09T04:19:26.357Z,6.28
2018-03-09T04:21:53.683Z,6.21
2018-03-09T04:24:20.256Z,6.22
2018-03-09T04:26:46.851Z,6.22
2018-03-09T04:29:13.457Z,6.29
2018-03-09T04:31:40.828Z,6.23
2018-03-09T04:34:07.409Z,6.23
2018-03-09T04:36:34.030Z,6.20
2018-03-09T04:39:00.612Z,6.23
2018-03-09T04:41:27.206Z,6.27
2018-03-09T04:47:00.643Z,6.31
2018-03-09T04:49:27.246Z,6.32
2018-03-09T04:51:53.883Z,6.32
2018-03-09T04:54:20.474Z,6.30
2018-03-09T04:56:47.865Z,6.33
2018-03-09T04:59:14.462Z,6.32
2018-03-09T05:01:41.035Z,6.25
2018-03-09T05:04:08.345Z,6.27
2018-03-09T05:06:34.963Z,6.25
2018-03-09T05:09:01.535Z,6.33
2018-03-09T05:11:28.144Z,6.27
2018-03-09T05:13:54.762Z,6.29
2018-03-09T05:16:21.357Z,6.29
2018-03-09T05:18:48.707Z,6.33
2018-03-09T05:21:16.046Z,6.37
2018-03-09T05:23:42.962Z,6.35
2018-03-09T05:26:09.530Z,6.35
2018-03-09T05:28:36.130Z,6.41
2018-03-09T05:31:02.715Z,6.37
2018-03-09T05:33:29.302Z,6.32
2018-03-09T05:35:55.934Z,6.34
2018-03-09T05:38:22.544Z,6.37
2018-03-09T05:40:49.135Z,6.35
2018-03-09T05:43:15.787Z,6.37
2018-03-09T05:45:42.440Z,6.35
2018-03-09T05:48:09.802Z,6.37
2018-03-09T05:50:36.431Z,6.38
2018-03-09T05:53:03.086Z,6.33
2018-03-09T05:55:30.642Z,6.30
2018-03-09T05:57:57.236Z,6.30
2018-03-09T06:00:23.802Z,6.32
2018-03-09T06:02:50.450Z,6.25
2018-03-09T06:05:17.062Z,6.28
2018-03-09T06:07:44.384Z,6.26
2018-03-09T06:10:10.979Z,6.31
2018-03-09T06:12:37.627Z,6.29
2018-03-09T06:15:04.226Z,6.31
2018-03-09T06:17:30.817Z,6.30
2018-03-09T06:19:57.407Z,6.30
2018-03-09T06:22:23.991Z,6.32
2018-03-09T06:24:50.606Z,6.40
2018-03-09T06:27:17.234Z,6.35
2018-03-09T06:29:44.561Z,6.36
2018-03-09T06:32:11.136Z,6.42
2018-03-09T06:34:37.743Z,6.44
2018-03-09T06:37:04.419Z,6.43
2018-03-09T06:39:30.990Z,6.49
2018-03-09T06:41:57.585Z,6.48
2018-03-09T06:44:24.172Z,6.52
2018-03-09T06:46:50.786Z,6.61
2018-03-09T06:49:17.386Z,6.73
2018-03-09T06:51:43.979Z,6.83
2018-03-09T06:54:10.666Z,6.84
2018-03-09T06:56:37.235Z,6.80
2018-03-09T06:59:03.830Z,6.75
2018-03-09T07:01:30.507Z,6.76
2018-03-09T07:03:57.099Z,6.80
2018-03-09T07:06:23.685Z,6.76
2018-03-09T07:08:50.272Z,6.82
2018-03-09T07:11:16.884Z,6.95
2018-03-09T07:13:43.473Z,6.92
2018-03-09T07:16:10.031Z,6.93
2018-03-09T07:18:36.634Z,6.98
2018-03-09T07:21:03.254Z,7.03
2018-03-09T07:23:30.864Z,7.06
2018-03-09T07:25:57.423Z,7.09
2018-03-09T07:28:23.990Z,7.23
2018-03-09T07:30:51.319Z,7.25
2018-03-09T07:33:17.876Z,7.37
2018-03-09T07:35:45.224Z,7.67
2018-03-09T07:38:11.792Z,7.83
2018-03-09T07:40:39.380Z,7.90
2018-03-09T07:43:05.930Z,7.99
2018-03-09T07:45:33.323Z,8.17
2018-03-09T07:47:59.923Z,8.29
2018-03-09T07:50:27.254Z,8.42
2018-03-09T07:52:53.850Z,8.66
2018-03-09T07:55:21.165Z,8.94
2018-03-09T07:57:47.853Z,8.92
2018-03-09T08:00:15.156Z,8.81
2018-03-09T08:02:41.772Z,8.68
2018-03-09T08:05:08.387Z,8.70
2018-03-09T08:07:34.966Z,8.63
2018-03-09T08:10:01.520Z,8.68
2018-03-09T08:12:28.863Z,8.57
2018-03-09T08:14:55.427Z,8.72
2018-03-09T08:17:22.814Z,8.75
2018-03-09T08:19:49.446Z,8.86
2018-03-09T08:22:16.046Z,8.88
2018-03-09T08:24:43.402Z,9.05
2018-03-09T08:27:10.742Z,9.13
2018-03-09T08:29:37.318Z,9.32
2018-03-09T08:32:04.046Z,9.45
2018-03-09T08:34:30.622Z,9.43
2018-03-09T08:36:57.562Z,9.38
2018-03-09T08:39:24.123Z,9.40
2018-03-09T08:41:50.711Z,9.51
2018-03-09T08:44:17.325Z,9.79
2018-03-09T08:46:44.663Z,10.10
2018-03-09T08:49:11.254Z,10.01
2018-03-09T08:51:37.840Z,10.08
2018-03-09T08:54:04.471Z,10.26
2018-03-09T08:56:31.339Z,10.51
2018-03-09T08:58:58.638Z,10.58
2018-03-09T09:01:25.203Z,10.46
2018-03-09T09:03:51.819Z,10.36
2018-03-09T09:06:18.434Z,10.32
2018-03-09T09:08:45.012Z,10.26
2018-03-09T09:11:11.572Z,10.38
2018-03-09T09:13:38.188Z,10.38
2018-03-09T09:16:04.785Z,10.29
2018-03-09T09:18:31.370Z,10.36
2018-03-09T09:20:58.717Z,10.20
2018-03-09T09:23:25.286Z,10.29
2018-03-09T09:25:51.900Z,10.20
2018-03-09T09:28:19.506Z,10.10
2018-03-09T09:30:46.074Z,10.28
2018-03-09T09:33:12.638Z,10.48
2018-03-09T09:35:39.228Z,10.45
2018-03-09T09:38:05.798Z,10.44
2018-03-09T09:40:32.419Z,10.25
2018-03-09T09:42:59.016Z,10.32
2018-03-09T09:45:25.587Z,10.27
2018-03-09T09:47:53.057Z,10.22
2018-03-09T09:50:19.683Z,10.19
2018-03-09T09:52:47.003Z,10.25
2018-03-09T09:55:13.595Z,10.43
2018-03-09T09:57:40.918Z,10.53
2018-03-09T10:00:07.763Z,11.59
2018-03-09T10:02:35.082Z,12.83
2018-03-09T10:05:01.690Z,13.27
2018-03-09T10:07:29.026Z,13.33
2018-03-09T10:09:55.594Z,13.29
2018-03-09T10:12:22.201Z,13.28
2018-03-09T10:14:48.790Z,13.02
2018-03-09T10:17:15.370Z,12.88
2018-03-09T10:19:41.951Z,13.05
2018-03-09T10:22:08.496Z,13.49
2018-03-09T10:24:35.098Z,13.89
2018-03-09T10:27:02.502Z,13.82
2018-03-09T10:29:29.099Z,13.81
2018-03-09T10:31:55.706Z,13.69
2018-03-09T10:34:22.284Z,13.39
2018-03-09T10:36:48.900Z,13.22
2018-03-09T10:39:15.450Z,13.12
2018-03-09T10:41:42.079Z,12.82
2018-03-09T10:44:09.422Z,12.75
2018-03-09T10:46:36.745Z,12.84
2018-03-09T10:49:03.359Z,12.68
2018-03-09T10:51:29.938Z,12.60
2018-03-09T10:53:57.259Z,12.63
2018-03-09T10:56:23.838Z,12.77
2018-03-09T10:58:50.430Z,13.10
2018-03-09T11:01:17.039Z,13.44
2018-03-09T11:03:43.617Z,13.49
2018-03-09T11:06:10.190Z,13.97
2018-03-09T11:08:36.771Z,14.26
2018-03-09T11:11:03.595Z,15.04
2018-03-09T11:13:30.195Z,15.71
2018-03-09T11:15:56.764Z,15.39
2018-03-09T11:18:23.378Z,16.07
2018-03-09T11:20:50.717Z,15.98
2018-03-09T11:23:17.309Z,16.10
2018-03-09T11:25:43.898Z,16.13
2018-03-09T11:28:11.214Z,15.91
2018-03-09T11:30:37.763Z,15.75
2018-03-09T11:33:04.377Z,15.53
2018-03-09T11:35:30.975Z,15.20
2018-03-09T11:37:57.547Z,15.36
2018-03-09T11:40:24.206Z,15.30
2018-03-09T11:42:50.858Z,15.30
2018-03-09T11:45:17.417Z,15.03
2018-03-09T11:47:44.292Z,15.17
2018-03-09T11:50:11.242Z,15.29
2018-03-09T11:52:37.904Z,15.11
2018-03-09T11:55:04.516Z,14.72
2018-03-09T11:57:31.123Z,14.65
2018-03-09T11:59:57.802Z,14.42
2018-03-09T12:02:24.458Z,14.40
2018-03-09T12:04:51.182Z,14.03
2018-03-09T12:07:17.772Z,13.82
2018-03-09T12:09:44.363Z,14.12
2018-03-09T12:12:10.975Z,14.18
2018-03-09T12:14:37.635Z,14.24
2018-03-09T12:17:04.452Z,14.45
2018-03-09T12:19:31.004Z,14.51
2018-03-09T12:21:57.634Z,14.44
2018-03-09T12:24:24.234Z,14.48
2018-03-09T12:26:50.843Z,14.11
2018-03-09T12:29:17.425Z,14.43
2018-03-09T12:31:44.018Z,14.23
2018-03-09T12:34:11.521Z,14.39
2018-03-09T12:36:38.127Z,14.25
2018-03-09T12:39:05.462Z,14.17
2018-03-09T12:41:32.813Z,14.17
2018-03-09T12:43:59.410Z,14.34
2018-03-09T12:46:26.326Z,14.30
2018-03-09T12:48:52.916Z,14.12
2018-03-09T12:51:19.509Z,14.37
2018-03-09T12:53:46.079Z,14.44
2018-03-09T12:56:12.677Z,14.36
2018-03-09T12:58:39.310Z,14.29
2018-03-09T13:01:06.687Z,14.45
2018-03-09T13:03:33.282Z,14.51
2018-03-09T13:06:00.606Z,14.54
2018-03-09T13:08:27.529Z,14.39
2018-03-09T13:10:54.212Z,14.37
2018-03-09T13:13:22.684Z,14.24
2018-03-09T13:15:49.327Z,14.36
2018-03-09T13:18:17.914Z,14.28
2018-03-09T13:20:44.513Z,14.14
2018-03-09T13:23:11.482Z,14.38
2018-03-09T13:25:38.125Z,14.35
2018-03-09T13:28:04.702Z,14.20
2018-03-09T13:30:31.311Z,14.12
2018-03-09T13:32:58.663Z,14.14
2018-03-09T13:35:25.517Z,14.20
2018-03-09T13:37:52.079Z,14.23
2018-03-09T13:40:18.670Z,14.22
2018-03-09T13:42:46.007Z,14.00
2018-03-09T13:45:12.579Z,13.81
2018-03-09T13:47:39.928Z,13.95
2018-03-09T13:50:06.543Z,14.06
2018-03-09T13:52:33.454Z,13.96
2018-03-09T13:55:00.914Z,13.95
2018-03-09T13:57:27.565Z,14.04
2018-03-09T13:59:54.106Z,13.76
2018-03-09T14:02:21.019Z,13.63
2018-03-09T14:04:47.592Z,13.69
2018-03-09T14:07:14.154Z,13.64
2018-03-09T14:09:41.775Z,13.70
2018-03-09T14:12:08.378Z,13.56
2018-03-09T14:14:35.077Z,13.53
2018-03-09T14:17:02.431Z,13.57
2018-03-09T14:19:29.346Z,13.59
2018-03-09T14:21:55.936Z,13.36
2018-03-09T14:24:23.250Z,13.43
2018-03-09T14:26:49.906Z,13.31
2018-03-09T14:29:16.478Z,13.18
2018-03-09T14:31:43.078Z,13.15
2018-03-09T14:34:10.409Z,13.09
2018-03-09T14:36:37.053Z,13.13
2018-03-09T14:39:03.746Z,13.08
2018-03-09T14:41:30.372Z,13.15
2018-03-09T14:43:56.997Z,13.09
2018-03-09T14:46:23.577Z,13.05
2018-03-09T14:48:50.205Z,13.01
2018-03-09T14:51:16.776Z,13.08
2018-03-09T14:53:43.450Z,13.11
2018-03-09T14:56:10.793Z,13.17
2018-03-09T14:58:38.159Z,13.28
2018-03-09T15:01:04.783Z,13.25
2018-03-09T15:03:32.110Z,13.31
2018-03-09T15:05:58.737Z,13.34
2018-03-09T15:08:25.299Z,13.31
2018-03-09T15:10:51.859Z,13.33
2018-03-09T15:13:18.470Z,13.18
2018-03-09T15:15:45.080Z,13.23
2018-03-09T15:18:11.662Z,13.14
2018-03-09T15:20:38.295Z,13.21
2018-03-09T15:23:05.717Z,13.11
2018-03-09T15:25:32.369Z,13.09
2018-03-09T15:27:58.977Z,12.94
2018-03-09T15:30:30.173Z,13.06
2018-03-09T15:32:56.820Z,12.96
2018-03-09T15:35:26.457Z,13.04
2018-03-09T15:37:59.190Z,13.24
2018-03-09T15:40:26.538Z,13.30
2018-03-09T15:42:53.903Z,13.30
2018-03-09T15:45:21.205Z,13.22
2018-03-09T15:47:49.228Z,13.20
2018-03-09T15:50:16.569Z,13.27
2018-03-09T15:52:43.230Z,13.23
2018-03-09T15:55:09.840Z,13.18
2018-03-09T15:57:36.446Z,13.09
2018-03-09T16:00:03.106Z,13.09
2018-03-09T16:02:29.699Z,13.05
2018-03-09T16:04:56.306Z,13.03
2018-03-09T16:07:23.645Z,13.03
2018-03-09T16:09:50.229Z,12.94
2018-03-09T16:12:17.116Z,12.89
2018-03-09T16:14:43.787Z,12.87
2018-03-09T16:17:10.524Z,12.83
2018-03-09T16:19:37.202Z,12.71
2018-03-09T16:22:04.595Z,12.69
2018-03-09T16:24:31.162Z,12.74
2018-03-09T16:26:57.795Z,12.65
2018-03-09T16:29:24.506Z,12.76
2018-03-09T16:31:51.082Z,12.55
2018-03-09T16:34:17.672Z,12.53
2018-03-09T16:36:44.242Z,12.45
2018-03-09T16:39:10.917Z,12.40
2018-03-09T16:41:37.550Z,12.33
2018-03-09T16:44:04.163Z,12.24
2018-03-09T16:46:31.549Z,12.25
2018-03-09T16:48:58.165Z,12.28
2018-03-09T16:51:24.762Z,12.16
2018-03-09T16:53:51.446Z,11.96
2018-03-09T16:56:18.031Z,11.96
2018-03-09T16:58:44.656Z,12.05
2018-03-09T17:01:11.234Z,12.16
2018-03-09T17:03:37.864Z,12.10
2018-03-09T17:06:04.467Z,12.09
2018-03-09T17:08:31.061Z,12.14
2018-03-09T17:10:57.639Z,11.94
2018-03-09T17:13:24.218Z,11.90
2018-03-09T17:15:50.898Z,11.79
2018-03-09T17:18:17.482Z,11.66
2018-03-09T17:20:44.875Z,11.70
2018-03-09T17:23:11.487Z,11.73
2018-03-09T17:25:38.080Z,11.73
2018-03-09T17:28:04.687Z,11.89
2018-03-09T17:30:31.287Z,11.79
2018-03-09T17:32:57.863Z,11.73
2018-03-09T17:35:24.474Z,11.67
2018-03-09T17:37:51.038Z,11.68
2018-03-09T17:40:17.644Z,11.70
2018-03-09T17:42:44.274Z,11.83
2018-03-09T17:45:10.882Z,11.93
2018-03-09T17:47:37.466Z,11.82
2018-03-09T17:50:04.146Z,11.46
2018-03-09T17:52:30.756Z,11.41
2018-03-09T17:54:57.351Z,11.36
2018-03-09T17:57:24.673Z,11.50
2018-03-09T17:59:51.273Z,11.50
2018-03-09T18:02:17.880Z,11.32
2018-03-09T18:04:44.476Z,11.21
2018-03-09T18:07:11.830Z,11.17
2018-03-09T18:09:38.405Z,11.11
2018-03-09T18:12:05.706Z,11.22
2018-03-09T18:14:33.103Z,11.11
2018-03-09T18:16:59.774Z,11.15
2018-03-09T18:19:26.382Z,11.05
2018-03-09T18:21:53.705Z,11.04
2018-03-09T18:24:20.311Z,10.96
2018-03-09T18:26:46.881Z,10.88
2018-03-09T18:29:13.486Z,10.83
2018-03-09T18:31:40.060Z,10.84
2018-03-09T18:34:06.630Z,10.86
2018-03-09T18:36:34.009Z,10.85
2018-03-09T18:39:01.487Z,10.81
2018-03-09T18:41:28.123Z,10.79
2018-03-09T18:43:54.716Z,10.73
2018-03-09T18:46:21.329Z,10.77
2018-03-09T18:48:47.902Z,10.80
2018-03-09T18:51:14.519Z,10.83
2018-03-09T18:53:41.082Z,10.82
2018-03-09T18:56:07.725Z,10.81
2018-03-09T18:58:34.307Z,10.70
2018-03-09T19:01:01.967Z,10.71
2018-03-09T19:03:29.309Z,10.67
2018-03-09T19:05:55.889Z,10.78
2018-03-09T19:08:22.538Z,10.70
2018-03-09T19:10:49.120Z,10.62
2018-03-09T19:13:16.476Z,10.57
2018-03-09T19:15:43.097Z,10.67
2018-03-09T19:18:09.750Z,10.58
2018-03-09T19:20:36.306Z,10.61
2018-03-09T19:23:02.907Z,10.65
2018-03-09T19:25:29.532Z,10.79
2018-03-09T19:27:56.474Z,10.77
2018-03-09T19:30:23.071Z,10.77
2018-03-09T19:32:50.431Z,10.83
2018-03-09T19:35:17.016Z,10.73
2018-03-09T19:37:43.594Z,10.67
2018-03-09T19:40:10.948Z,10.66
2018-03-09T19:42:38.285Z,10.80
2018-03-09T19:45:06.689Z,10.70
2018-03-09T19:47:33.288Z,10.70
2018-03-09T19:49:59.894Z,10.69
2018-03-09T19:52:26.516Z,10.83
2018-03-09T19:54:53.091Z,10.79
2018-03-09T19:57:19.668Z,10.65
2018-03-09T19:59:46.981Z,10.66
2018-03-09T20:02:13.527Z,10.71
2018-03-09T20:04:40.882Z,10.66
2018-03-09T20:07:07.582Z,10.67
2018-03-09T20:09:34.134Z,10.56
2018-03-09T20:12:00.700Z,10.68
2018-03-09T20:14:27.340Z,10.69
2018-03-09T20:16:53.916Z,10.66
2018-03-09T20:19:20.509Z,10.64
2018-03-09T20:21:48.137Z,10.57
2018-03-09T20:24:14.700Z,10.62
2018-03-09T20:26:41.318Z,10.65
2018-03-09T20:29:07.923Z,10.66
2018-03-09T20:31:34.496Z,10.72
2018-03-09T20:34:01.362Z,10.63
2018-03-09T20:36:27.944Z,10.61
2018-03-09T20:38:54.516Z,10.52
2018-03-09T20:41:21.102Z,10.62
2018-03-09T20:43:47.668Z,10.56
2018-03-09T20:46:14.261Z,10.49
2018-03-09T20:48:40.899Z,10.41
2018-03-09T20:51:08.611Z,10.41
2018-03-09T20:53:35.266Z,10.52
2018-03-09T20:56:02.846Z,10.42
2018-03-09T20:58:30.184Z,10.34
2018-03-09T21:00:56.802Z,10.34
2018-03-09T21:03:23.390Z,10.45
2018-03-09T21:05:50.739Z,10.33
2018-03-09T21:08:18.047Z,10.22
2018-03-09T21:10:44.642Z,10.19
2018-03-09T21:13:11.222Z,10.18
2018-03-09T21:15:38.056Z,10.19
2018-03-09T21:18:04.666Z,10.16
2018-03-09T21:20:31.285Z,10.22
2018-03-09T21:22:57.898Z,10.19
2018-03-09T21:25:25.256Z,10.08
2018-03-09T21:27:51.855Z,10.09
2018-03-09T21:30:19.220Z,10.01
2018-03-09T21:32:45.852Z,10.05
2018-03-09T21:35:12.492Z,10.07
2018-03-09T21:37:39.106Z,10.05
2018-03-09T21:40:05.660Z,10.06
2018-03-09T21:42:32.242Z,10.02
2018-03-09T21:44:59.652Z,9.96
2018-03-09T21:47:26.209Z,9.96
2018-03-09T21:49:53.543Z,10.00
2018-03-09T21:52:20.235Z,9.96
2018-03-09T21:54:46.819Z,9.90
2018-03-09T21:57:13.414Z,9.92
2018-03-09T21:59:39.995Z,9.90
2018-03-09T22:02:06.620Z,9.88
2018-03-09T22:04:33.202Z,9.81
2018-03-09T22:07:00.588Z,9.70
2018-03-09T22:09:27.184Z,9.75
2018-03-09T22:11:53.828Z,9.73
2018-03-09T22:14:20.406Z,9.77
2018-03-09T22:16:46.983Z,9.73
2018-03-09T22:19:13.538Z,9.75
2018-03-09T22:21:40.871Z,9.71
2018-03-09T22:24:07.460Z,9.63
2018-03-09T22:26:34.058Z,9.53
2018-03-09T22:29:00.623Z,9.58
2018-03-09T22:31:27.205Z,9.55
2018-03-09T22:33:53.776Z,9.56
2018-03-09T22:36:20.386Z,9.57
2018-03-09T22:38:46.945Z,9.55
2018-03-09T22:41:13.505Z,9.46
2018-03-09T22:43:40.075Z,9.57
2018-03-09T22:46:06.667Z,9.61
2018-03-09T22:48:33.234Z,9.49
2018-03-09T22:50:59.858Z,9.45
2018-03-09T22:53:26.441Z,9.54
2018-03-09T22:55:53.010Z,9.52
2018-03-09T22:58:20.328Z,9.53
2018-03-09T23:00:47.744Z,9.53
2018-03-09T23:03:14.423Z,9.45
2018-03-09T23:05:41.918Z,9.48
2018-03-09T23:08:09.247Z,9.48
2018-03-09T23:10:35.803Z,9.56
2018-03-09T23:13:03.182Z,9.46
2018-03-09T23:15:29.682Z,9.32
2018-03-09T23:17:56.294Z,9.45
2018-03-09T23:20:22.871Z,9.43
2018-03-09T23:22:49.445Z,9.38
2018-03-09T23:25:16.015Z,9.33
2018-03-09T23:27:42.595Z,9.26
2018-03-09T23:30:09.195Z,9.25
2018-03-09T23:32:35.787Z,9.19
2018-03-09T23:35:02.403Z,9.22
2018-03-09T23:37:28.986Z,9.26
2018-03-09T23:39:55.551Z,9.28
2018-03-09T23:42:22.860Z,9.30
2018-03-09T23:44:49.426Z,9.34
2018-03-09T23:47:17.135Z,9.18
2018-03-09T23:49:43.714Z,9.26
2018-03-09T23:52:11.070Z,9.15
2018-03-09T23:54:37.638Z,9.20
2018-03-09T23:57:04.201Z,9.28
2018-03-09T23:59:30.773Z,9.29
